Time;durP1;ratioP1;P1;durP2;ratioP2;P2;SDS_P1;SDS_P2;PMS_P1;PMS_P2;Temp;Humidity;BMP_temperature;BMP_pressure;BME280_temperature;BME280_humidity;BME280_pressure;Samples;Min_cycle;Max_cycle;Signal;HPM_P1;HPM_P2
2022/08/11 00:00:08;;;;;;;;;13.00;13.00;;;;;28.00;34.04;101565.50;5058067;28;45289;-71
2022/08/11 00:02:36;;;;;;;;;10.00;10.00;;;;;27.96;34.62;101567.47;5057489;28;45606;-72
2022/08/11 00:05:09;;;;;;;;;11.67;11.67;;;;;27.93;34.41;101567.66;5057589;28;45372;-70
2022/08/11 00:07:42;;;;;;;;;9.33;9.33;;;;;27.89;34.34;101568.75;5057457;28;45453;-72
2022/08/11 00:10:10;;;;;;;;;10.33;10.33;;;;;27.83;34.65;101561.78;5057950;28;45372;-70
2022/08/11 00:12:36;;;;;;;;;13.00;11.00;;;;;27.82;34.61;101567.31;5057146;28;45647;-70
2022/08/11 00:15:02;;;;;;;;;11.67;11.00;;;;;27.79;34.83;101565.59;5056625;28;65876;-71
2022/08/11 00:17:32;;;;;;;;;12.33;11.00;;;;;27.75;34.67;101568.53;5039218;28;45376;-71
2022/08/11 00:20:13;;;;;;;;;13.00;12.33;;;;;27.72;35.13;101572.28;5057437;28;45534;-72
2022/08/11 00:22:40;;;;;;;;;13.00;11.33;;;;;27.66;35.19;101564.44;5038730;28;46375;-71
2022/08/11 00:25:10;;;;;;;;;11.00;11.00;;;;;27.64;34.84;101567.19;5057501;28;45301;-70
2022/08/11 00:27:37;;;;;;;;;11.00;10.00;;;;;27.60;35.29;101562.00;5056988;28;45411;-71
2022/08/11 00:30:05;;;;;;;;;10.33;10.33;;;;;27.56;35.05;101561.28;5057268;28;45493;-70
2022/08/11 00:32:30;;;;;;;;;9.33;9.33;;;;;27.56;35.60;101571.25;5038826;28;46563;-71
2022/08/11 00:34:57;;;;;;;;;11.00;10.00;;;;;27.53;35.29;101568.66;5055575;28;45387;-71
2022/08/11 00:37:23;;;;;;;;;12.00;12.00;;;;;27.48;35.55;101563.47;5043822;28;45498;-71
2022/08/11 00:39:50;;;;;;;;;12.33;11.67;;;;;27.44;35.90;101564.59;5056309;28;45473;-71
2022/08/11 00:42:43;;;;;;;;;12.00;10.33;;;;;27.42;35.77;101567.34;5055907;28;45973;-71
2022/08/11 00:45:23;;;;;;;;;13.67;12.33;;;;;27.39;35.90;101567.50;5056972;28;45561;-71
2022/08/11 00:48:00;;;;;;;;;12.00;11.00;;;;;27.36;35.71;101572.19;5055920;28;45537;-71
2022/08/11 00:50:48;;;;;;;;;11.67;11.67;;;;;27.33;36.20;101570.53;5057220;28;45501;-71
2022/08/11 00:53:38;;;;;;;;;11.00;11.00;;;;;27.28;36.03;101580.72;5054809;28;46862;-71
2022/08/11 00:56:38;;;;;;;;;12.67;12.00;;;;;27.25;35.92;101569.09;5055696;28;45776;-70
2022/08/11 00:59:26;;;;;;;;;12.00;12.00;;;;;27.19;36.34;101574.81;5057166;28;45505;-71
2022/08/11 01:02:12;;;;;;;;;11.33;11.33;;;;;27.14;36.53;101567.78;5055820;28;45584;-71
2022/08/11 01:05:36;;;;;;;;;11.00;11.00;;;;;27.11;35.95;101572.44;5056691;28;45998;-71
2022/08/11 01:08:32;;;;;;;;;12.00;9.67;;;;;27.06;36.22;101575.38;5005535;28;45382;-69
2022/08/11 01:11:28;;;;;;;;;12.00;11.00;;;;;27.00;36.42;101563.91;5056861;28;45327;-71
2022/08/11 01:14:12;;;;;;;;;11.67;10.67;;;;;26.97;36.88;101575.78;5056911;28;45277;-70
2022/08/11 01:17:19;;;;;;;;;9.67;9.67;;;;;26.90;36.89;101574.31;5056269;28;46562;-72
2022/08/11 01:20:03;;;;;;;;;11.33;10.00;;;;;26.87;36.98;101563.59;5055671;28;45328;-71
2022/08/11 01:22:47;;;;;;;;;11.00;9.00;;;;;26.82;36.57;101566.50;5056662;28;45414;-71
2022/08/11 01:25:37;;;;;;;;;10.33;9.33;;;;;26.79;36.94;101571.19;5056746;28;45562;-71
2022/08/11 01:28:24;;;;;;;;;10.00;10.00;;;;;26.74;37.24;101560.56;5056234;28;45352;-71
2022/08/11 01:31:02;;;;;;;;;10.00;10.00;;;;;26.70;37.40;101563.47;5056248;28;45337;-71
2022/08/11 01:33:48;;;;;;;;;13.00;11.00;;;;;26.66;36.77;101570.84;5056097;28;45379;-71
2022/08/11 01:36:34;;;;;;;;;12.00;11.00;;;;;26.59;37.31;101562.13;5057820;28;45907;-71
2022/08/11 01:39:27;;;;;;;;;13.67;10.00;;;;;26.56;37.52;101570.38;5059904;28;46385;-69
2022/08/11 01:44:51;;;;;;;;;11.67;10.00;;;;;26.51;37.51;101568.81;5059892;28;45356;-71
2022/08/11 01:48:07;;;;;;;;;10.00;10.00;;;;;26.47;37.30;101570.75;5059514;28;45619;-71
2022/08/11 01:50:50;;;;;;;;;13.00;11.00;;;;;26.44;37.43;101559.22;5055539;28;46757;-70
2022/08/11 01:53:37;;;;;;;;;11.00;10.00;;;;;26.38;37.54;101563.91;5058962;28;45211;-71
2022/08/11 01:56:11;;;;;;;;;11.00;11.00;;;;;26.36;37.73;101573.91;5059792;28;45478;-70
2022/08/11 01:58:54;;;;;;;;;12.00;10.33;;;;;26.31;38.09;101569.63;5060144;28;45360;-71
2022/08/11 02:01:35;;;;;;;;;9.33;9.33;;;;;26.27;38.04;101574.31;5059580;28;46542;-71
2022/08/11 02:04:03;;;;;;;;;10.00;10.00;;;;;26.23;38.19;101566.41;5059590;28;45479;-70
2022/08/11 02:07:05;;;;;;;;;8.00;8.00;;;;;26.21;38.48;101568.31;5059586;28;45367;-70
2022/08/11 02:09:54;;;;;;;;;9.67;9.67;;;;;26.16;38.02;101573.91;5059587;28;45719;-69
2022/08/11 02:12:32;;;;;;;;;12.67;11.33;;;;;26.12;38.77;101572.25;5058178;28;45486;-70
2022/08/11 02:15:24;;;;;;;;;11.67;10.67;;;;;26.05;38.31;101568.94;5058217;28;45260;-69
2022/08/11 02:18:11;;;;;;;;;10.00;10.00;;;;;26.02;38.43;101569.06;5059504;28;45277;-71
2022/08/11 02:23:50;;;;;;;;;10.00;10.00;;;;;25.91;38.54;101571.31;5058043;28;45270;-71
2022/08/11 02:26:40;;;;;;;;;12.33;11.00;;;;;25.88;38.73;101570.56;5041367;28;46338;-70
2022/08/11 02:29:20;;;;;;;;;13.00;8.33;;;;;25.84;39.03;101565.28;5059316;28;45294;-70
2022/08/11 02:35:08;;;;;;;;;11.67;11.67;;;;;25.75;39.43;101562.06;5058448;28;45442;-70
2022/08/11 02:37:42;;;;;;;;;10.33;10.33;;;;;25.74;39.80;101572.03;5046991;28;45312;-71
2022/08/11 02:40:20;;;;;;;;;12.67;12.33;;;;;25.69;39.90;101565.88;5058940;28;45453;-73
2022/08/11 02:42:55;;;;;;;;;11.00;11.00;;;;;25.69;39.25;101567.72;5059152;28;45422;-73
2022/08/11 02:45:45;;;;;;;;;11.00;10.00;;;;;25.66;39.44;101571.41;5056988;28;45784;-72
2022/08/11 02:51:33;;;;;;;;;12.67;11.00;;;;;25.59;39.76;101567.19;5057674;28;45185;-72
2022/08/11 02:54:12;;;;;;;;;13.00;11.33;;;;;25.53;39.95;101562.91;5058645;28;45324;-71
2022/08/11 02:56:50;;;;;;;;;10.33;10.33;;;;;25.52;40.01;101568.38;5058526;28;47019;-71
2022/08/11 02:59:50;;;;;;;;;12.00;10.00;;;;;25.49;40.73;101563.97;5058560;28;45224;-71
2022/08/11 03:02:29;;;;;;;;;11.00;11.00;;;;;25.47;40.76;101570.38;5058626;28;45280;-72
2022/08/11 03:04:59;;;;;;;;;10.67;10.67;;;;;25.44;41.00;101568.66;5058903;28;45300;-71
2022/08/11 03:07:43;;;;;;;;;14.00;10.67;;;;;25.41;40.59;101563.41;5058256;28;46508;-71
2022/08/11 03:10:35;;;;;;;;;11.33;11.33;;;;;25.40;40.69;101568.84;5058490;28;45221;-71
2022/08/11 03:16:50;;;;;;;;;10.33;10.33;;;;;25.32;40.85;101571.84;5058597;28;45481;-72
2022/08/11 03:19:53;;;;;;;;;11.33;11.33;;;;;25.28;41.02;101572.91;5027560;28;46857;-72
2022/08/11 03:22:27;;;;;;;;;11.00;11.00;;;;;25.24;41.65;101561.31;5058491;28;45605;-72
2022/08/11 03:25:40;;;;;;;;;10.33;10.33;;;;;25.20;41.75;101559.69;5058465;28;45224;-73
2022/08/11 03:28:44;;;;;;;;;12.00;12.00;;;;;25.18;41.56;101560.69;5058378;28;45662;-71
2022/08/11 03:31:28;;;;;;;;;11.00;11.00;;;;;25.14;42.30;101561.72;5056943;28;46431;-73
2022/08/11 03:34:01;;;;;;;;;12.00;12.00;;;;;25.10;42.36;101562.81;5057868;28;45328;-72
2022/08/11 03:36:54;;;;;;;;;13.00;13.00;;;;;25.07;42.09;101563.78;5057871;28;45324;-72
2022/08/11 03:39:46;;;;;;;;;13.00;13.00;;;;;25.01;42.53;101551.38;5040085;28;45494;-71
2022/08/11 03:42:17;;;;;;;;;14.67;14.67;;;;;25.03;42.78;101559.41;5056740;28;46127;-72
2022/08/11 03:45:17;;;;;;;;;13.67;13.67;;;;;25.01;43.19;101570.28;5058019;28;45388;-72
2022/08/11 03:48:01;;;;;;;;;15.00;13.00;;;;;24.97;43.45;101565.91;5023807;28;45520;-72
2022/08/11 03:51:00;;;;;;;;;15.00;14.00;;;;;24.93;43.79;101575.09;5058027;28;45178;-72
2022/08/11 03:53:31;;;;;;;;;14.00;14.00;;;;;24.91;43.46;101574.25;5056780;28;47802;-72
2022/08/11 03:56:19;;;;;;;;;16.00;13.67;;;;;24.88;43.79;101568.97;5058012;28;45305;-72
2022/08/11 03:59:00;;;;;;;;;18.33;15.00;;;;;24.82;43.92;101562.00;5056022;28;45532;-73
2022/08/11 04:01:47;;;;;;;;;16.67;12.67;;;;;24.81;44.37;101562.03;5057489;28;45575;-72
2022/08/11 04:04:22;;;;;;;;;16.00;14.67;;;;;24.78;44.32;101562.16;5056486;28;46115;-70
2022/08/11 04:06:49;;;;;;;;;17.33;15.33;;;;;24.77;44.70;101561.28;5057662;28;45233;-72
2022/08/11 04:09:34;;;;;;;;;20.00;17.67;;;;;24.75;44.63;101562.25;5056221;28;45393;-71
2022/08/11 04:12:02;;;;;;;;;17.67;15.00;;;;;24.70;44.87;101567.81;5057816;28;45441;-71
2022/08/11 04:17:45;;;;;;;;;17.67;17.00;;;;;24.66;45.21;101568.88;5057224;28;45592;-71
2022/08/11 04:20:29;;;;;;;;;16.33;16.33;;;;;24.63;45.37;101571.69;5057445;28;45440;-72
2022/08/11 04:23:03;;;;;;;;;18.67;15.67;;;;;24.61;45.45;101572.66;5057587;28;45564;-72
2022/08/11 04:25:47;;;;;;;;;16.00;16.00;;;;;24.58;45.70;101564.69;5057104;28;46710;-71
2022/08/11 04:28:55;;;;;;;;;16.67;15.00;;;;;24.55;45.89;101565.66;5056044;28;45471;-73
2022/08/11 04:31:33;;;;;;;;;19.00;17.33;;;;;24.49;46.17;101561.34;5027374;28;45475;-72
2022/08/11 04:34:31;;;;;;;;;19.00;17.33;;;;;24.50;46.34;101559.53;5056060;28;45395;-71
2022/08/11 04:40:12;;;;;;;;;14.33;14.33;;;;;24.46;46.59;101564.19;5056194;28;45348;-71
2022/08/11 04:43:20;;;;;;;;;17.67;16.67;;;;;24.41;46.86;101560.75;5057370;28;45402;-72
2022/08/11 04:46:13;;;;;;;;;18.00;15.33;;;;;24.39;46.69;101561.72;5056969;28;45634;-72
2022/08/11 05:02:44;;;;;;;;;14.33;14.33;;;;;24.33;47.25;101565.50;4994803;28;45483;-73
2022/08/11 05:05:48;;;;;;;;;15.33;14.00;;;;;24.35;47.33;101562.78;5039140;28;45360;-71
2022/08/11 05:08:32;;;;;;;;;17.33;14.00;;;;;24.33;47.83;101570.91;5056826;28;45375;-72
2022/08/11 05:11:11;;;;;;;;;16.00;15.00;;;;;24.33;47.46;101568.19;5059402;28;45765;-73
2022/08/11 05:36:49;;;;;;;;;17.00;16.00;;;;;24.36;48.65;101594.25;5058426;28;45902;-72
2022/08/11 05:58:43;;;;;;;;;13.33;13.33;;;;;24.41;49.38;101609.34;5058621;28;45729;-72
2022/08/11 06:01:20;;;;;;;;;18.67;15.00;;;;;24.44;49.36;101605.66;5059407;28;45223;-72
2022/08/11 06:06:35;;;;;;;;;14.00;12.00;;;;;24.49;49.22;101611.78;5058749;28;45323;-71
2022/08/11 06:09:01;;;;;;;;;15.00;15.00;;;;;24.55;48.97;101609.78;5059477;28;46925;-71
2022/08/11 06:11:28;;;;;;;;;15.67;12.00;;;;;24.60;49.09;101604.19;5061036;28;45415;-71
2022/08/11 06:13:55;;;;;;;;;14.00;14.00;;;;;24.63;49.07;101608.63;5060736;28;45303;-71
2022/08/11 06:16:24;;;;;;;;;13.00;13.00;;;;;24.62;49.04;101612.25;5058549;28;45322;-71
2022/08/11 06:18:49;;;;;;;;;13.33;13.33;;;;;24.66;48.67;101605.78;5059167;28;47154;-72
2022/08/11 06:21:16;;;;;;;;;11.00;11.00;;;;;24.70;48.81;101608.31;5046803;28;61155;-72
2022/08/11 06:23:42;;;;;;;;;11.00;11.00;;;;;24.72;48.53;101611.00;5057963;28;45476;-72
2022/08/11 06:26:12;;;;;;;;;14.00;13.00;;;;;24.73;47.94;101604.66;5059562;28;45228;-71
2022/08/11 06:28:39;;;;;;;;;9.33;9.33;;;;;24.77;47.55;101604.50;5059299;28;45852;-73
2022/08/11 06:31:17;;;;;;;;;12.67;11.00;;;;;24.83;47.29;101615.06;5058031;28;45284;-71
2022/08/11 06:34:02;;;;;;;;;11.33;10.00;;;;;24.87;47.13;101609.53;5040907;28;45486;-71
2022/08/11 06:36:35;;;;;;;;;12.67;9.33;;;;;24.91;46.84;101611.19;5058713;28;45462;-73
2022/08/11 06:39:22;;;;;;;;;12.33;12.00;;;;;24.92;46.21;101613.84;5040712;28;45431;-73
2022/08/11 06:42:04;;;;;;;;;12.00;10.33;;;;;24.96;45.88;101615.50;5058689;28;45249;-71
2022/08/11 06:44:39;;;;;;;;;12.00;12.00;;;;;25.01;45.25;101615.34;5037558;28;45381;-73
2022/08/11 06:47:08;;;;;;;;;10.33;10.00;;;;;25.03;45.39;101617.03;5057318;28;45253;-71
2022/08/11 06:52:36;;;;;;;;;12.00;10.67;;;;;25.13;44.64;101606.81;5057652;28;45409;-73
2022/08/11 07:00:26;;;;;;;;;10.00;10.00;;;;;25.18;44.11;101601.22;5056991;28;45485;-72
2022/08/11 07:00:47;;;;;;;;;12.00;10.00;;;;;25.30;43.77;101614.28;5057755;28;45896;-72
2022/08/11 07:03:16;;;;;;;;;10.33;10.33;;;;;25.33;43.38;101604.22;5057614;28;68176;-71
2022/08/11 07:05:50;;;;;;;;;11.00;10.00;;;;;25.42;42.86;101618.34;5040414;28;45374;-72
2022/08/11 07:15:40;;;;;;;;;13.33;11.33;;;;;25.53;42.27;101614.28;5058280;28;45374;-72
2022/08/11 07:17:48;;;;;;;;;13.00;10.00;;;;;25.64;41.92;101613.00;4946092;28;45468;-71
2022/08/11 07:28:54;;;;;;;;;11.00;9.33;;;;;25.84;41.47;101610.41;5056981;28;45472;-72
2022/08/11 07:31:36;;;;;;;;;9.00;7.33;;;;;25.90;41.06;101612.88;5057330;28;45729;-71
2022/08/11 07:34:11;;;;;;;;;9.33;9.33;;;;;25.92;41.44;101610.97;5055751;28;46605;-72
2022/08/11 07:36:40;;;;;;;;;9.00;9.00;;;;;26.00;41.32;101607.97;5057596;28;45240;-72
2022/08/11 07:39:08;;;;;;;;;8.67;8.67;;;;;26.04;41.11;101610.47;5057062;28;45474;-71
2022/08/11 07:41:34;;;;;;;;;8.00;8.00;;;;;26.09;41.17;101603.03;5040195;28;45812;-71
2022/08/11 07:44:07;;;;;;;;;8.00;8.00;;;;;26.12;40.61;101596.63;5057840;28;48299;-71
2022/08/11 07:52:29;;;;;;;;;11.00;11.00;;;;;26.31;40.50;101599.41;5057755;28;45398;-72
2022/08/11 07:54:58;;;;;;;;;9.33;9.33;;;;;26.36;40.15;101606.41;5055607;28;46357;-73
2022/08/11 08:19:19;;;;;;;;;12.33;8.00;;;;;26.81;38.81;101588.25;5057347;28;45438;-72
2022/08/11 08:21:46;;;;;;;;;9.00;9.00;;;;;26.86;38.80;101594.38;5039111;28;45283;-72
2022/08/11 08:24:11;;;;;;;;;10.00;8.67;;;;;26.89;38.67;101594.22;5057473;28;45385;-72
2022/08/11 08:32:06;;;;;;;;;13.67;9.00;;;;;27.03;37.69;101594.47;5037603;28;45623;-72
2022/08/11 08:34:32;;;;;;;;;10.33;8.00;;;;;27.07;37.50;101598.84;5038827;28;45560;-70
2022/08/11 08:36:59;;;;;;;;;9.00;8.33;;;;;27.11;38.16;101586.91;5055984;28;46520;-73
2022/08/11 08:39:24;;;;;;;;;9.33;7.00;;;;;27.15;38.08;101584.91;5055911;28;48004;-71
2022/08/11 08:41:54;;;;;;;;;7.33;7.33;;;;;27.21;37.35;101589.19;5055389;28;62809;-73
2022/08/11 08:44:21;;;;;;;;;9.67;8.67;;;;;27.26;39.83;101592.56;5035772;28;45399;-75
2022/08/11 08:46:50;;;;;;;;;8.00;8.00;;;;;27.32;39.98;101592.25;5053334;28;45574;-71
2022/08/11 08:49:18;;;;;;;;;7.33;7.33;;;;;27.33;39.36;101583.19;5037848;28;45267;-75
2022/08/11 08:51:48;;;;;;;;;11.00;8.00;;;;;27.38;39.53;101586.59;5172758;22;45746;-72
2022/08/11 08:54:17;;;;;;;;;10.00;8.33;;;;;27.44;41.32;101589.00;5059229;28;45406;-71
2022/08/11 08:56:44;;;;;;;;;7.33;7.33;;;;;27.47;42.75;101596.97;5054782;28;47633;-72
2022/08/11 08:59:12;;;;;;;;;8.67;7.00;;;;;27.50;42.96;101596.84;5038329;28;45981;-71
2022/08/11 09:01:45;;;;;;;;;8.33;7.00;;;;;27.55;44.40;101599.34;5021824;28;45365;-73
2022/08/11 09:04:12;;;;;;;;;8.00;8.00;;;;;27.55;41.25;101594.78;5038657;28;45502;-73
2022/08/11 09:06:44;;;;;;;;;9.33;8.33;;;;;27.60;43.81;101591.84;5018293;28;46902;-72
2022/08/11 09:09:13;;;;;;;;;8.67;8.00;;;;;27.63;45.11;101592.56;5051329;28;45395;-72
2022/08/11 09:11:54;;;;;;;;;7.67;7.00;;;;;27.68;43.61;101585.09;5036613;28;45479;-71
2022/08/11 09:14:59;;;;;;;;;7.33;7.33;;;;;27.72;42.55;101599.44;5038306;28;45695;-71
2022/08/11 09:17:14;;;;;;;;;8.00;7.00;;;;;27.76;44.34;101592.03;5053596;28;45493;-71
2022/08/11 09:19:40;;;;;;;;;7.33;7.33;;;;;27.77;45.29;101580.22;5032170;28;45489;-70
2022/08/11 09:27:37;;;;;;;;;9.00;8.00;;;;;27.84;43.50;101573.53;5040846;28;45694;-71
2022/08/11 09:30:04;;;;;;;;;7.00;7.00;;;;;27.88;44.91;101567.00;5055358;28;45477;-73
2022/08/11 09:32:30;;;;;;;;;7.67;7.33;;;;;27.92;45.89;101569.47;5055049;28;45420;-72
2022/08/11 09:34:57;;;;;;;;;9.00;8.00;;;;;27.96;45.74;101574.75;5055750;28;45569;-71
2022/08/11 09:45:37;;;;;;;;;8.33;7.00;;;;;28.08;46.35;101560.56;5040699;28;45229;-70
2022/08/11 09:48:04;;;;;;;;;7.00;7.00;;;;;28.08;46.93;101569.59;5036489;28;69365;-71
2022/08/11 09:50:31;;;;;;;;;6.33;6.33;;;;;28.11;45.60;101550.41;5038009;28;45443;-72
2022/08/11 09:52:58;;;;;;;;;8.33;8.00;;;;;28.16;46.07;101563.75;5055828;28;45348;-70
2022/08/11 09:55:24;;;;;;;;;8.00;8.00;;;;;28.18;46.25;101553.72;5042861;28;59266;-71
2022/08/11 10:00:39;;;;;;;;;7.33;6.00;;;;;28.27;42.78;101553.22;5057053;28;45485;-74
2022/08/11 10:03:11;;;;;;;;;8.00;7.00;;;;;28.35;44.86;101553.75;5057052;28;45492;-72
2022/08/11 10:08:26;;;;;;;;;9.00;9.00;;;;;28.43;46.29;101550.63;5029472;28;46223;-72
2022/08/11 10:10:53;;;;;;;;;7.00;7.00;;;;;28.45;46.13;101549.59;5052509;28;45567;-70
2022/08/11 10:13:21;;;;;;;;;6.00;6.00;;;;;28.46;44.40;101542.31;5056589;28;55614;-73
2022/08/11 10:15:47;;;;;;;;;8.67;8.00;;;;;28.52;43.05;101544.72;5058230;28;45608;-70
2022/08/11 10:21:02;;;;;;;;;10.00;9.00;;;;;28.61;44.02;101533.38;5058350;28;45770;-70
2022/08/11 10:29:00;;;;;;;;;6.33;6.33;;;;;28.74;38.69;101533.56;5043271;28;45929;-71
2022/08/11 10:34:10;;;;;;;;;8.67;7.67;;;;;28.93;38.25;101537.09;5052650;28;45622;-73
2022/08/11 10:36:42;;;;;;;;;8.67;7.67;;;;;29.02;39.93;101532.97;5040225;28;45519;-72
2022/08/11 10:39:08;;;;;;;;;6.67;6.67;;;;;29.14;37.68;101529.59;5023773;28;46622;-71
2022/08/11 10:44:19;;;;;;;;;10.33;6.67;;;;;29.34;36.58;101516.69;5042044;28;45398;-72
2022/08/11 10:49:30;;;;;;;;;7.00;7.00;;;;;29.52;36.01;101504.78;5056528;28;45898;-72
2022/08/11 11:00:14;;;;;;;;;7.67;7.67;;;;;29.85;32.34;101498.38;5042561;28;45464;-71
2022/08/11 11:02:44;;;;;;;;;7.67;7.67;;;;;29.91;37.33;101493.41;5039946;28;45468;-73
2022/08/11 11:05:23;;;;;;;;;7.33;7.33;;;;;29.93;35.76;101493.31;5056880;28;45513;-71
2022/08/11 11:07:49;;;;;;;;;7.00;7.00;;;;;29.95;35.16;101505.03;5053960;28;45558;-71
2022/08/11 11:10:14;;;;;;;;;10.00;8.67;;;;;29.98;32.95;101496.66;5057927;28;45489;-75
2022/08/11 11:18:34;;;;;;;;;10.00;8.33;;;;;30.21;33.51;101487.16;5039492;28;45457;-73
2022/08/11 11:21:11;;;;;;;;;7.00;7.00;;;;;30.26;32.84;101480.44;5039676;28;46152;-73
2022/08/11 11:23:53;;;;;;;;;6.00;6.00;;;;;30.36;32.61;101477.13;5037728;28;45514;-73
2022/08/11 11:26:42;;;;;;;;;6.00;6.00;;;;;30.45;32.53;101479.28;5056598;28;45256;-73
2022/08/11 11:29:19;;;;;;;;;9.33;7.00;;;;;30.54;32.67;101484.19;5052875;28;45493;-71
2022/08/11 11:31:49;;;;;;;;;8.00;5.00;;;;;30.59;32.23;101468.41;5038487;28;46780;-74
2022/08/11 11:34:36;;;;;;;;;7.00;7.00;;;;;30.71;32.19;101481.28;5057142;28;45846;-75
2022/08/11 11:37:02;;;;;;;;;7.00;5.33;;;;;30.77;32.05;101475.44;5039898;28;45688;-76
2022/08/11 11:39:30;;;;;;;;;6.00;6.00;;;;;30.87;32.02;101472.16;5024086;28;56868;-74
2022/08/11 11:41:59;;;;;;;;;7.00;7.00;;;;;30.97;31.65;101481.50;5046024;28;46683;-74
2022/08/11 11:44:24;;;;;;;;;8.00;8.00;;;;;31.06;30.93;101469.13;5050909;28;45771;-72
2022/08/11 11:46:50;;;;;;;;;8.00;6.33;;;;;31.17;30.60;101452.94;5027550;28;55466;-73
2022/08/11 11:49:22;;;;;;;;;5.67;5.67;;;;;31.28;30.34;101458.59;5033149;28;45503;-72
2022/08/11 11:51:51;;;;;;;;;7.00;7.00;;;;;31.38;30.29;101454.28;5033985;28;46873;-73
2022/08/11 11:54:20;;;;;;;;;3.00;3.00;;;;;31.51;30.38;101465.22;5049867;28;45502;-76
2022/08/11 11:56:45;;;;;;;;;7.00;7.00;;;;;31.64;29.91;101455.25;5031906;28;45815;-74
2022/08/11 12:01:56;;;;;;;;;8.00;6.00;;;;;31.90;29.61;101450.75;5049482;28;46097;-77
2022/08/11 12:04:22;;;;;;;;;4.67;4.67;;;;;32.03;29.62;101453.53;5050589;28;62447;-76
2022/08/11 12:06:48;;;;;;;;;6.33;5.33;;;;;32.19;28.88;101445.13;5032196;28;45636;-74
2022/08/11 12:09:22;;;;;;;;;9.00;6.00;;;;;32.30;28.61;101448.84;5051338;28;45619;-74
2022/08/11 12:14:32;;;;;;;;;7.00;7.00;;;;;32.58;28.00;101446.91;5033915;28;45576;-77
2022/08/11 12:16:57;;;;;;;;;5.67;5.67;;;;;32.68;28.45;101438.94;5029902;28;56682;-75
2022/08/11 12:19:24;;;;;;;;;6.00;6.00;;;;;32.81;27.66;101440.69;5050229;28;61831;-73
2022/08/11 12:27:20;;;;;;;;;7.00;6.00;;;;;33.11;27.59;101409.31;5052272;28;45466;-74
2022/08/11 12:29:52;;;;;;;;;6.00;5.00;;;;;33.22;27.60;101412.13;5034014;28;45636;-73
2022/08/11 12:32:23;;;;;;;;;8.00;6.67;;;;;33.33;27.21;101425.88;5033764;28;47009;-74
2022/08/11 12:34:49;;;;;;;;;8.00;6.33;;;;;33.45;26.67;101420.50;5050811;28;45506;-72
2022/08/11 12:37:19;;;;;;;;;6.33;6.33;;;;;33.53;26.42;101418.94;5032307;28;45581;-75
2022/08/11 12:45:27;;;;;;;;;8.33;7.00;;;;;33.72;26.61;101406.53;5051496;28;45596;-73
2022/08/11 12:53:45;;;;;;;;;7.00;7.00;;;;;33.91;25.55;101403.25;5049880;28;45580;-76
2022/08/11 13:07:09;;;;;;;;;9.00;7.00;;;;;34.07;25.30;101401.09;5029185;28;45588;-76
2022/08/11 13:09:34;;;;;;;;;7.00;7.00;;;;;34.08;25.23;101383.63;5051124;28;45516;-75
2022/08/11 13:14:44;;;;;;;;;6.00;6.00;;;;;34.14;25.12;101386.78;5033858;28;45770;-76
2022/08/11 13:17:21;;;;;;;;;5.00;5.00;;;;;34.19;24.96;101388.25;5034903;28;58466;-77
2022/08/11 13:19:47;;;;;;;;;7.67;5.67;;;;;34.24;25.63;101383.28;5038870;28;45372;-76
2022/08/11 13:22:16;;;;;;;;;10.33;7.67;;;;;34.28;24.99;101388.41;5035731;28;45368;-77
2022/08/11 13:24:42;;;;;;;;;7.33;6.00;;;;;34.32;25.11;101384.44;5055491;28;46838;-76
2022/08/11 13:27:07;;;;;;;;;6.33;6.33;;;;;34.36;25.32;101383.19;5053962;28;65685;-77
2022/08/11 13:29:34;;;;;;;;;8.33;7.00;;;;;34.36;25.02;101382.31;5055456;28;45506;-77
2022/08/11 13:32:00;;;;;;;;;9.33;6.33;;;;;34.37;24.75;101379.44;5057460;28;45482;-76
2022/08/11 13:34:27;;;;;;;;;6.00;6.00;;;;;34.42;25.04;101384.56;5039017;28;70430;-77
2022/08/11 13:36:54;;;;;;;;;7.00;7.00;;;;;34.46;24.52;101386.06;5039827;28;45502;-76
2022/08/11 13:39:25;;;;;;;;;7.00;7.00;;;;;34.48;23.95;101377.75;5036560;28;45470;-76
2022/08/11 13:41:55;;;;;;;;;7.00;7.00;;;;;34.51;23.98;101374.72;5040443;28;45469;-76
2022/08/11 13:44:21;;;;;;;;;10.33;8.00;;;;;34.55;24.10;101373.50;5058686;28;46711;-75
2022/08/11 13:46:47;;;;;;;;;6.00;6.00;;;;;34.55;24.08;101377.09;5057849;28;45356;-77
2022/08/11 13:49:16;;;;;;;;;7.67;7.00;;;;;34.58;24.17;101367.78;5058172;28;45443;-77
2022/08/11 13:51:42;;;;;;;;;6.33;6.33;;;;;34.59;23.91;101369.50;5057693;28;45524;-76
2022/08/11 13:54:17;;;;;;;;;6.67;6.67;;;;;34.58;24.14;101370.53;5040183;28;45810;-76
2022/08/11 13:56:45;;;;;;;;;7.67;7.00;;;;;34.61;24.21;101367.50;5040855;28;45540;-76
2022/08/11 13:59:12;;;;;;;;;6.00;6.00;;;;;34.62;23.84;101361.91;5040876;28;45376;-77
2022/08/11 14:01:41;;;;;;;;;7.00;7.00;;;;;34.62;24.08;101361.00;5058526;28;45280;-76
2022/08/11 14:04:16;;;;;;;;;7.00;7.00;;;;;34.62;24.30;101372.88;5040536;28;45826;-76
2022/08/11 14:06:47;;;;;;;;;7.00;7.00;;;;;34.63;24.23;101368.28;5036974;28;45366;-76
2022/08/11 14:09:15;;;;;;;;;6.00;6.00;;;;;34.64;24.20;101361.78;5040365;28;45463;-77
2022/08/11 14:14:31;;;;;;;;;8.33;7.00;;;;;34.62;23.56;101369.25;5057526;28;45955;-77
2022/08/11 14:17:03;;;;;;;;;8.33;8.33;;;;;34.60;23.79;101355.66;5039947;28;45423;-77
2022/08/11 14:19:29;;;;;;;;;7.33;7.00;;;;;34.62;23.83;101361.00;5023444;28;45408;-76
2022/08/11 14:22:06;;;;;;;;;6.00;6.00;;;;;34.59;23.64;101350.31;5039997;28;60373;-77
2022/08/11 14:24:34;;;;;;;;;7.00;7.00;;;;;34.62;23.72;101358.28;5041237;28;46528;-77
2022/08/11 14:27:00;;;;;;;;;8.67;8.00;;;;;34.62;23.69;101358.28;5039879;28;45661;-76
2022/08/11 14:29:26;;;;;;;;;7.00;7.00;;;;;34.59;23.68;101331.97;5037114;28;45351;-77
2022/08/11 14:31:55;;;;;;;;;7.33;7.00;;;;;34.62;23.74;101341.81;5051259;28;45537;-77
2022/08/11 14:34:29;;;;;;;;;7.00;7.00;;;;;34.57;23.11;101336.72;5055072;28;46994;-79
2022/08/11 14:37:10;;;;;;;;;8.00;8.00;;;;;34.57;23.64;101344.97;5040214;28;45516;-77
2022/08/11 14:39:55;;;;;;;;;7.33;6.00;;;;;34.58;23.75;101335.72;5058171;28;45338;-77
2022/08/11 14:47:57;;;;;;;;;7.00;7.00;;;;;34.51;23.59;101325.38;5057665;28;45384;-75
2022/08/11 14:50:26;;;;;;;;;9.67;7.00;;;;;34.51;23.48;101319.88;5038943;28;45468;-76
2022/08/11 14:52:58;;;;;;;;;7.33;7.00;;;;;34.49;23.11;101313.66;5036608;28;45414;-76
2022/08/11 14:58:10;;;;;;;;;9.33;6.33;;;;;34.49;23.25;101303.56;5054090;28;45261;-73
2022/08/11 15:00:36;;;;;;;;;7.00;7.00;;;;;34.51;23.75;101312.53;5038486;28;45461;-74
2022/08/11 15:03:09;;;;;;;;;7.00;7.00;;;;;34.52;23.74;101288.75;5038794;28;45623;-73
2022/08/11 15:05:39;;;;;;;;;7.00;7.00;;;;;34.50;23.23;101285.22;5056515;28;46735;-74
2022/08/11 15:08:05;;;;;;;;;6.67;6.00;;;;;34.54;23.55;101304.06;5039255;28;45386;-73
2022/08/11 15:10:31;;;;;;;;;8.00;6.00;;;;;34.53;23.15;101290.47;5039076;28;45344;-75
2022/08/11 15:12:57;;;;;;;;;8.00;8.00;;;;;34.54;23.12;101308.69;5039363;28;45424;-74
2022/08/11 15:18:12;;;;;;;;;8.00;8.00;;;;;34.56;23.08;101293.81;5042257;28;45356;-75
2022/08/11 15:26:17;;;;;;;;;8.00;8.00;;;;;34.54;23.12;101287.59;5037488;28;46067;-76
2022/08/11 15:37:25;;;;;;;;;8.00;8.00;;;;;34.58;22.66;101277.25;5042476;28;45880;-77
2022/08/11 15:45:49;;;;;;;;;9.33;8.67;;;;;34.65;23.91;101276.59;5037637;28;46003;-75
2022/08/11 15:48:42;;;;;;;;;6.67;6.00;;;;;34.69;25.01;101274.50;5028291;28;47394;-74
2022/08/11 15:51:15;;;;;;;;;8.00;8.00;;;;;34.67;23.94;101279.22;5043191;28;45710;-76
2022/08/11 15:53:54;;;;;;;;;5.67;5.67;;;;;34.73;24.18;101289.69;5049754;28;45511;-72
2022/08/11 15:56:22;;;;;;;;;9.00;8.00;;;;;34.80;24.22;101281.81;5046832;28;45596;-76
2022/08/11 16:04:23;;;;;;;;;9.00;8.00;;;;;34.88;24.75;101263.69;5034451;28;45649;-73
2022/08/11 16:06:56;;;;;;;;;8.67;8.67;;;;;34.93;24.50;101260.56;5031662;28;45623;-74
2022/08/11 16:09:56;;;;;;;;;8.00;8.00;;;;;34.98;24.69;101273.91;5045214;28;45550;-76
2022/08/11 16:12:25;;;;;;;;;6.33;6.33;;;;;35.01;24.55;101273.66;5046320;28;45763;-75